Saint Barthelemy, St. Barthelemy

1:29 PM AST on August 28, 2015 (GMT -0400)
Lorient | | Change Station
CLOSE
Current Station
Personal Weather Station
Location: Saint Barthélémy,
Elevation: 33 ft
Nearby Weather Stations

Elev 33 ft 17.91 °N, 62.82 °W | Updated 6 minutes ago

Scattered Clouds
Scattered Clouds
86.0 °F
Feels Like 98 °F
N
8.0
Wind Variable Wind from NNW
Gusts 11.0 mph

Today
High -- | Low -- °F
--% Chance of Precip.
Yesterday
High -- | Low -- °F
Precip. -- in
5:56 AM 6:28 PM
Waxing Gibbous, 98% visible
Pressure 30.01 in
Visibility 6.2 miles
Clouds Scattered Clouds 2000 ft
Heat Index 98 °F
Dew Point 78 °F
Humidity 77%
Rainfall 0.00 in
Snow Depth Not available.
UV 13 out of 12
Pollen Not available.
Air Quality Not available.
Flu Activity Not available.
METAR TNCM 281700Z 10011KT 9999 SCT020 30/24 Q1016 A3002 NOSIG
Pressure 30.01 in
Visibility 6.2 miles
Clouds Scattered Clouds 2000 ft
Heat Index 98 °F
Dew Point 78 °F
Humidity 77%
Rainfall 0.00 in
Snow Depth Not available.
UV 13 out of 12
Pollen Not available.
Air Quality Not available.
Flu Activity Not available.
METAR TNCM 281700Z 10011KT 9999 SCT020 30/24 Q1016 A3002 NOSIG

10-Day Weather Forecast

×

Almanac

Astronomy

Aug. 28, 2015 Rise Set
Actual Time
Civil Twilight
Nautical Twilight
Astronomical Twilight
Moon
Length of Visible Light
Length of Day
Tomorrow will be .
, % of the Moon is Illuminated

Today's Extremes

Country Highs Country Lows

Community

WunderPhotos

Upload Photos

1,850,439 photos uploaded!

WunderBlogs® & News

Nearby

Air Quality

  Air Quality AQ Index Pollutant
Not available.

Snow Depth

Station Depth Elevation

Earthquake Activity

City Distance Mag. Time & Date
Minimum magnitude displayed is 2.5.

Coastal Water Temperatures

Place Temperature

Stations

Nearby Weather Stations

Station Location Temp. Windchill Dew Point Humidity Wind Precip. Elev Updated Type